TimeEDT,TemperatureF,Dew PointF,Humidity,Sea Level PressureIn,VisibilityMPH,Wind Direction,Wind SpeedMPH,Gust SpeedMPH,PrecipitationIn,Events,Conditions,WindDirDegrees,DateUTC
12:53 AM,70.0,63.0,78,30.18,10.0,NNW,8.1,-,N/A,,Clear,340,2012-10-12 04:53:00
1:53 AM,70.0,64.0,81,30.16,10.0,North,6.9,-,N/A,,Clear,360,2012-10-12 05:53:00
2:53 AM,69.1,63.0,81,30.15,10.0,North,5.8,-,N/A,,Clear,350,2012-10-12 06:53:00
4:53 AM,69.1,63.0,81,30.14,10.0,North,5.8,-,N/A,,Clear,360,2012-10-12 08:53:00
5:53 AM,69.1,62.1,78,30.15,10.0,North,5.8,-,N/A,,Clear,350,2012-10-12 09:53:00
6:53 AM,69.1,62.1,78,30.16,10.0,North,5.8,-,N/A,,Clear,350,2012-10-12 10:53:00
7:53 AM,70.0,63.0,78,30.17,10.0,North,6.9,-,N/A,,Clear,350,2012-10-12 11:53:00
8:53 AM,73.0,64.9,76,30.19,10.0,North,6.9,-,N/A,,Clear,350,2012-10-12 12:53:00
9:53 AM,75.0,66.0,73,30.21,10.0,North,6.9,-,N/A,,Mostly Cloudy,10,2012-10-12 13:53:00
10:53 AM,79.0,66.0,64,30.22,10.0,NNE,11.5,19.6,N/A,,Clear,20,2012-10-12 14:53:00
12:53 PM,82.9,61.0,47,30.19,10.0,ENE,12.7,-,N/A,,Clear,60,2012-10-12 16:53:00
1:53 PM,84.0,59.0,43,30.16,10.0,NNE,12.7,19.6,N/A,,Clear,30,2012-10-12 17:53:00
2:53 PM,84.0,57.9,41,30.14,10.0,NE,12.7,18.4,N/A,,Clear,40,2012-10-12 18:53:00
3:53 PM,84.0,55.9,38,30.13,10.0,NE,8.1,-,N/A,,Clear,40,2012-10-12 19:53:00
4:53 PM,84.9,54.0,34,30.14,10.0,North,10.4,-,N/A,,Clear,10,2012-10-12 20:53:00
5:53 PM,82.9,54.0,37,30.14,10.0,NNE,12.7,-,N/A,,Clear,30,2012-10-12 21:53:00
6:53 PM,78.1,57.0,48,30.16,10.0,NNE,9.2,-,N/A,,Clear,30,2012-10-12 22:53:00
7:53 PM,75.0,59.0,57,30.17,10.0,NNE,6.9,-,N/A,,Clear,30,2012-10-12 23:53:00
8:53 PM,75.0,61.0,62,30.19,10.0,NNE,8.1,-,N/A,,Clear,20,2012-10-13 00:53:00
9:53 PM,73.9,62.1,66,30.20,10.0,NNE,8.1,-,N/A,,Clear,20,2012-10-13 01:53:00
10:53 PM,73.0,62.1,68,30.20,10.0,NNE,5.8,-,N/A,,Clear,20,2012-10-13 02:53:00
11:53 PM,72.0,63.0,73,30.19,10.0,NNE,4.6,-,N/A,,Clear,20,2012-10-13 03:53:00